LRIA Airport Information

Runway Information
Runway 15 Length 5841 ft width 98 ft
Elevation 397 ft Threshold 0 ft Heading 154
Runway 33 Length 5841 ft Width 98 ft
Elevation 340 ft Threshold 0 ft Heading 334
Airport Frequencies
Type APP Name APP Frequency 119.2 MHZ
Type GCA Name PRECISION Frequency 118.8 MHZ
Type TWR Name TWR Frequency 119.2 MHZ
Airport Navaids
Type NDB Name Iasi Frequency 391 KHZ
Airport Weather Information & NOTAM
ADDS - METARS form results

(0211 UTC 25 January 2020)
Data provider http://aviationweather.gov/metar/data/
 
METAR text: LRIA 250200Z 23004KT CAVOK M03/M07 Q1019
Conditions at: LRIA (IASI , RO) observed 0200 UTC 25 January 2020
Temperature: -3.0°C (27°F)
Dewpoint: -7.0°C (19°F) [RH = 74%]
Pressure (altimeter): 30.09 inches Hg (1019.0 mb)
Winds: from the SW (230 degrees) at 5 MPH (4 knots; 2.1 m/s)
Visibility: 6 or more miles (10+ km)
Ceiling: ceiling and visibility are OK
Clouds: unknown
Weather: no significant weather observed at this time

METAR text: LRIA 250130Z 28004KT CAVOK M03/M07 Q1019
Conditions at: LRIA (IASI , RO) observed 0130 UTC 25 January 2020
Temperature: -3.0°C (27°F)
Dewpoint: -7.0°C (19°F) [RH = 74%]
Pressure (altimeter): 30.09 inches Hg (1019.0 mb)
Winds: from the W (280 degrees) at 5 MPH (4 knots; 2.1 m/s)
Visibility: 6 or more miles (10+ km)
Ceiling: ceiling and visibility are OK
Clouds: unknown
Weather: no significant weather observed at this time

Forecast for: LRIA (IASI , RO)
Text: TAF LRIA 242300Z 2500/2509 08007KT CAVOK
Forecast period: 0000 to 0900 UTC 25 January 2020
Forecast type: FROM: standard forecast or significant change
Winds: from the E (80 degrees) at 8 MPH (7 knots; 3.6 m/s)
Visibility: 6 or more miles 10+ km)
Ceiling: unknown
Clouds: missing
Weather: NSW  (no significant weather)